createdAt,value
2023-02-08T00:00:24.608Z,28.10
2023-02-08T00:02:53.326Z,31.07
2023-02-08T00:05:21.633Z,29.70
2023-02-08T00:07:49.571Z,30.30
2023-02-08T00:10:19.139Z,27.70
2023-02-08T00:12:47.278Z,31.90
2023-02-08T00:15:15.272Z,31.03
2023-02-08T00:17:43.304Z,30.03
2023-02-08T00:23:12.035Z,30.10
2023-02-08T00:25:42.074Z,32.17
2023-02-08T00:28:13.883Z,36.23
2023-02-08T00:30:43.006Z,27.57
2023-02-08T00:33:11.223Z,32.13
2023-02-08T00:35:38.956Z,30.30
2023-02-08T00:38:06.606Z,35.77
2023-02-08T00:40:34.318Z,26.30
2023-02-08T00:43:03.768Z,29.43
2023-02-08T00:45:31.368Z,24.90
2023-02-08T00:47:58.983Z,27.97
2023-02-08T00:50:26.884Z,32.43
2023-02-08T00:52:54.498Z,28.60
2023-02-08T00:55:22.239Z,37.53
2023-02-08T00:57:49.887Z,32.73
2023-02-08T01:00:19.599Z,34.87
2023-02-08T01:02:47.230Z,29.20
2023-02-08T01:05:14.926Z,27.40
2023-02-08T01:07:42.633Z,29.30
2023-02-08T01:10:12.590Z,25.97
2023-02-08T01:12:41.775Z,30.40
2023-02-08T01:15:10.338Z,29.37
2023-02-08T01:17:40.897Z,30.80
2023-02-08T01:20:11.047Z,27.53
2023-02-08T01:22:38.723Z,28.40
2023-02-08T01:25:06.801Z,28.57
2023-02-08T01:27:34.603Z,29.13
2023-02-08T01:30:02.367Z,29.20
2023-02-08T01:32:30.069Z,29.17
2023-02-08T01:34:59.100Z,29.70
2023-02-08T01:37:26.735Z,29.50
2023-02-08T01:39:54.450Z,29.10
2023-02-08T01:42:22.653Z,28.00
2023-02-08T01:45:27.770Z,29.57
2023-02-08T01:48:00.474Z,25.30
2023-02-08T01:50:32.853Z,26.60
2023-02-08T01:53:02.474Z,27.70
2023-02-08T01:55:33.309Z,30.80
2023-02-08T01:58:03.173Z,30.87
2023-02-08T02:00:32.517Z,32.17
2023-02-08T02:03:00.430Z,26.83
2023-02-08T02:05:35.344Z,26.90
2023-02-08T02:08:03.417Z,27.07
2023-02-08T02:10:32.972Z,30.30
2023-02-08T02:13:05.708Z,33.00
2023-02-08T02:15:33.742Z,30.77
2023-02-08T02:18:01.781Z,29.50
2023-02-08T02:20:43.460Z,34.10
2023-02-08T02:23:33.427Z,33.90
2023-02-08T02:26:22.453Z,33.93
2023-02-08T02:29:35.628Z,30.10
2023-02-08T02:32:17.332Z,31.20
2023-02-08T02:34:47.347Z,29.10
2023-02-08T02:37:26.490Z,31.40
2023-02-08T02:40:01.936Z,29.70
2023-02-08T02:42:55.890Z,28.33
2023-02-08T02:45:29.248Z,28.60
2023-02-08T02:48:03.718Z,29.47
2023-02-08T02:50:33.910Z,39.90
2023-02-08T02:53:04.894Z,29.73
2023-02-08T02:55:35.944Z,36.13
2023-02-08T02:58:03.990Z,32.80
2023-02-08T03:00:32.229Z,29.43
2023-02-08T03:03:01.318Z,31.10
2023-02-08T03:05:30.234Z,31.70
2023-02-08T03:08:17.316Z,32.33
2023-02-08T03:10:55.883Z,28.60
2023-02-08T03:13:33.934Z,33.50
2023-02-08T03:16:09.542Z,29.67
2023-02-08T03:18:48.995Z,36.50
2023-02-08T03:21:20.431Z,28.50
2023-02-08T03:23:58.428Z,34.47
2023-02-08T03:26:33.140Z,28.97
2023-02-08T03:29:05.856Z,34.20
2023-02-08T03:31:36.527Z,32.00
2023-02-08T03:34:08.118Z,32.80
2023-02-08T03:36:39.605Z,27.00
2023-02-08T03:39:10.375Z,31.70
2023-02-08T03:41:40.421Z,34.17
2023-02-08T03:44:10.823Z,29.37
2023-02-08T03:46:41.337Z,26.07
2023-02-08T03:49:14.801Z,32.77
2023-02-08T03:51:44.577Z,32.53
2023-02-08T03:54:15.235Z,32.30
2023-02-08T03:56:46.253Z,40.50
2023-02-08T03:59:17.318Z,29.70
2023-02-08T04:01:47.378Z,33.97
2023-02-08T04:04:17.873Z,33.23
2023-02-08T04:06:45.568Z,33.47
2023-02-08T04:09:13.381Z,33.40
2023-02-08T04:11:41.236Z,32.83
2023-02-08T04:14:08.842Z,35.13
2023-02-08T04:16:36.598Z,32.97
2023-02-08T04:19:04.413Z,37.43
2023-02-08T04:21:33.436Z,32.17
2023-02-08T04:24:01.135Z,33.40
2023-02-08T04:26:28.844Z,34.50
2023-02-08T04:28:56.512Z,31.30
2023-02-08T04:31:24.426Z,31.03
2023-02-08T04:33:52.300Z,34.50
2023-02-08T04:36:20.200Z,28.57
2023-02-08T04:38:49.253Z,33.87
2023-02-08T04:41:17.870Z,36.27
2023-02-08T04:43:45.891Z,30.53
2023-02-08T04:46:13.654Z,36.60
2023-02-08T04:48:41.431Z,37.63
2023-02-08T04:51:09.106Z,33.83
2023-02-08T04:53:36.836Z,32.20
2023-02-08T04:56:06.376Z,41.07
2023-02-08T04:58:34.118Z,34.50
2023-02-08T05:01:01.809Z,33.23
2023-02-08T05:03:29.547Z,34.20
2023-02-08T05:05:58.504Z,36.93
2023-02-08T05:08:26.635Z,39.27
2023-02-08T05:10:54.274Z,38.23
2023-02-08T05:13:23.282Z,36.50
2023-02-08T05:15:50.930Z,33.67
2023-02-08T05:18:18.579Z,41.90
2023-02-08T05:20:46.401Z,35.93
2023-02-08T05:23:14.014Z,35.27
2023-02-08T05:25:42.043Z,39.80
2023-02-08T05:28:09.775Z,31.93
2023-02-08T05:30:40.408Z,32.20
2023-02-08T05:33:08.225Z,36.10
2023-02-08T05:35:35.953Z,35.73
2023-02-08T05:38:03.603Z,31.60
2023-02-08T05:40:31.423Z,34.03
2023-02-08T05:42:59.375Z,38.10
2023-02-08T05:45:27.046Z,36.83
2023-02-08T05:47:56.305Z,38.13
2023-02-08T05:50:23.919Z,41.60
2023-02-08T05:52:51.693Z,35.20
2023-02-08T05:55:19.538Z,45.90
2023-02-08T05:57:47.213Z,42.33
2023-02-08T06:00:16.224Z,37.00
2023-02-08T06:02:43.854Z,47.40
2023-02-08T06:05:13.089Z,45.87
2023-02-08T06:07:40.960Z,46.83
2023-02-08T06:10:11.259Z,39.20
2023-02-08T06:12:39.571Z,45.60
2023-02-08T06:15:08.169Z,47.27
2023-02-08T06:17:36.198Z,48.17
2023-02-08T06:20:04.365Z,47.23
2023-02-08T06:22:35.107Z,45.30
2023-02-08T06:25:03.099Z,56.07
2023-02-08T06:27:31.421Z,54.60
2023-02-08T06:29:59.719Z,54.97
2023-02-08T06:32:27.910Z,47.10
2023-02-08T06:34:55.952Z,46.30
2023-02-08T06:37:24.003Z,56.17
2023-02-08T06:39:53.227Z,40.97
2023-02-08T06:42:21.203Z,48.10
2023-02-08T06:44:54.977Z,53.57
2023-02-08T06:47:27.196Z,54.63
2023-02-08T06:49:54.930Z,55.67
2023-02-08T06:52:22.927Z,53.60
2023-02-08T06:54:50.570Z,51.07
2023-02-08T06:57:20.001Z,52.43
2023-02-08T06:59:47.552Z,50.77
2023-02-08T07:02:17.343Z,48.80
2023-02-08T07:04:45.682Z,46.67
2023-02-08T07:07:14.082Z,50.63
2023-02-08T07:09:42.210Z,57.53
2023-02-08T07:12:10.320Z,50.43
2023-02-08T07:14:41.510Z,53.57
2023-02-08T07:17:09.453Z,51.97
2023-02-08T07:19:37.239Z,59.57
2023-02-08T07:22:08.293Z,51.23
2023-02-08T07:24:36.906Z,50.53
2023-02-08T07:27:06.192Z,47.80
2023-02-08T07:29:34.640Z,55.73
2023-02-08T07:32:05.809Z,54.90
2023-02-08T07:34:37.655Z,50.73
2023-02-08T07:37:05.527Z,55.47
2023-02-08T07:39:33.562Z,55.43
2023-02-08T07:42:01.441Z,61.13
2023-02-08T07:44:34.625Z,47.37
2023-02-08T07:47:03.826Z,53.00
2023-02-08T07:49:31.872Z,49.93
2023-02-08T07:51:59.583Z,58.13
2023-02-08T07:54:27.362Z,46.40
2023-02-08T07:56:55.126Z,55.20
2023-02-08T07:59:23.182Z,51.70
2023-02-08T08:01:51.009Z,64.40
2023-02-08T08:04:22.095Z,51.30
2023-02-08T08:06:51.482Z,57.40
2023-02-08T08:09:20.327Z,51.93
2023-02-08T08:11:47.988Z,56.70
2023-02-08T08:14:15.720Z,58.60
2023-02-08T08:16:43.815Z,52.53
2023-02-08T08:19:11.830Z,52.43
2023-02-08T08:21:41.332Z,58.03
2023-02-08T08:24:09.542Z,53.60
2023-02-08T08:26:37.419Z,54.57
2023-02-08T08:29:06.400Z,60.60
2023-02-08T08:31:34.420Z,54.47
2023-02-08T08:34:02.122Z,52.70
2023-02-08T08:36:29.797Z,47.00
2023-02-08T08:38:58.901Z,61.20
2023-02-08T08:41:27.428Z,58.13
2023-02-08T08:43:55.584Z,55.33
2023-02-08T08:46:23.337Z,57.73
2023-02-08T08:48:51.726Z,56.13
2023-02-08T08:51:19.598Z,57.50
2023-02-08T08:53:47.265Z,46.57
2023-02-08T08:56:16.291Z,57.43
2023-02-08T08:58:44.489Z,50.67
2023-02-08T09:01:14.089Z,51.40
2023-02-08T09:03:41.987Z,49.10
2023-02-08T09:06:09.714Z,59.93
2023-02-08T09:08:38.024Z,52.40
2023-02-08T09:11:07.381Z,51.97
2023-02-08T09:13:36.492Z,52.97
2023-02-08T09:16:11.390Z,53.37
2023-02-08T09:18:39.170Z,51.03
2023-02-08T09:21:07.716Z,48.67
2023-02-08T09:23:35.552Z,49.50
2023-02-08T09:26:03.920Z,52.57
2023-02-08T09:28:31.801Z,49.80
2023-02-08T09:31:01.744Z,48.30
2023-02-08T09:33:29.781Z,45.77
2023-02-08T09:35:57.478Z,46.30
2023-02-08T09:38:25.245Z,47.77
2023-02-08T09:41:01.164Z,51.27
2023-02-08T09:43:33.033Z,48.97
2023-02-08T09:46:05.433Z,45.07
2023-02-08T09:48:36.237Z,48.50
2023-02-08T09:51:10.244Z,53.57
2023-02-08T09:53:41.878Z,50.50
2023-02-08T09:56:14.152Z,40.87
2023-02-08T09:58:44.545Z,44.80
2023-02-08T10:01:19.622Z,42.60
2023-02-08T10:03:48.196Z,41.17
2023-02-08T10:06:18.178Z,46.13
2023-02-08T10:08:47.543Z,37.80
2023-02-08T10:11:43.380Z,42.90
2023-02-08T10:14:31.987Z,39.20
2023-02-08T10:17:11.103Z,47.67
2023-02-08T10:19:50.465Z,43.37
2023-02-08T10:22:27.152Z,39.63
2023-02-08T10:25:07.723Z,43.57
2023-02-08T10:27:43.583Z,38.57
2023-02-08T10:30:19.522Z,42.83
2023-02-08T10:33:00.964Z,56.47
2023-02-08T10:35:37.186Z,39.73
2023-02-08T10:38:37.230Z,44.73
2023-02-08T10:41:17.640Z,45.93
2023-02-08T10:43:48.550Z,37.60
2023-02-08T10:46:19.692Z,41.60
2023-02-08T10:48:56.355Z,34.97
2023-02-08T10:51:24.230Z,43.60
2023-02-08T10:53:52.207Z,36.90
2023-02-08T10:56:38.206Z,41.30
2023-02-08T10:59:15.140Z,38.07
2023-02-08T11:01:43.401Z,42.77
2023-02-08T11:04:14.322Z,42.33
2023-02-08T11:06:43.389Z,43.93
2023-02-08T11:09:22.700Z,44.03
2023-02-08T11:11:52.870Z,36.00
2023-02-08T11:14:30.427Z,41.13
2023-02-08T11:17:05.836Z,35.47
2023-02-08T11:19:39.363Z,40.03
2023-02-08T11:22:07.657Z,39.90
2023-02-08T11:24:40.179Z,35.27
2023-02-08T11:27:18.429Z,39.70
2023-02-08T11:29:47.009Z,44.07
2023-02-08T11:32:17.993Z,37.70
2023-02-08T11:34:47.402Z,37.13
2023-02-08T11:37:17.295Z,40.63
2023-02-08T11:39:49.750Z,40.23
2023-02-08T11:42:21.917Z,34.53
2023-02-08T11:44:50.401Z,36.97
2023-02-08T11:47:21.513Z,35.97
2023-02-08T11:49:55.401Z,37.50
2023-02-08T11:52:25.546Z,38.80
2023-02-08T11:54:54.175Z,36.47
2023-02-08T11:57:23.981Z,37.43
2023-02-08T11:59:53.776Z,33.93
2023-02-08T12:02:30.438Z,39.70
2023-02-08T12:05:00.157Z,39.43
2023-02-08T12:07:36.877Z,33.83
2023-02-08T12:10:32.039Z,52.27
2023-02-08T12:13:19.159Z,34.10
2023-02-08T12:15:58.916Z,33.87
2023-02-08T12:18:41.220Z,36.23
2023-02-08T12:21:14.430Z,30.53
2023-02-08T12:23:57.797Z,26.13
2023-02-08T12:26:48.706Z,33.40
2023-02-08T12:29:45.686Z,32.87
2023-02-08T12:32:34.218Z,29.30
2023-02-08T12:35:15.622Z,28.60
2023-02-08T12:38:03.873Z,37.67
2023-02-08T12:40:54.136Z,28.07
2023-02-08T12:43:35.393Z,31.93
2023-02-08T12:46:18.275Z,31.00
2023-02-08T12:49:09.587Z,33.00
2023-02-08T12:51:45.638Z,29.43
2023-02-08T12:54:16.556Z,30.57
2023-02-08T12:56:56.920Z,29.83
2023-02-08T12:59:34.322Z,29.47
2023-02-08T13:02:05.580Z,26.47
2023-02-08T13:04:38.407Z,29.27
2023-02-08T13:07:14.257Z,31.77
2023-02-08T13:09:47.147Z,26.70
2023-02-08T13:12:19.047Z,31.40
2023-02-08T13:14:48.856Z,27.73
2023-02-08T13:17:21.717Z,27.60
2023-02-08T13:20:00.087Z,26.47
2023-02-08T13:22:28.903Z,28.17
2023-02-08T13:25:07.089Z,27.50
2023-02-08T13:27:35.882Z,29.50
2023-02-08T13:30:05.679Z,25.50
2023-02-08T13:32:38.074Z,21.67
2023-02-08T13:35:12.778Z,23.63
2023-02-08T13:37:40.891Z,24.50
2023-02-08T13:40:21.540Z,20.80
2023-02-08T13:42:51.615Z,22.50
2023-02-08T13:45:25.624Z,23.30
2023-02-08T13:47:58.984Z,23.53
2023-02-08T13:50:44.803Z,23.60
2023-02-08T13:53:14.008Z,20.77
2023-02-08T13:56:01.790Z,21.57
2023-02-08T13:58:58.693Z,21.47
2023-02-08T14:01:28.901Z,26.93
2023-02-08T14:04:18.436Z,21.10
2023-02-08T14:06:49.228Z,19.30
2023-02-08T14:09:23.319Z,19.20
2023-02-08T14:11:55.882Z,23.10
2023-02-08T14:14:25.648Z,19.13
2023-02-08T14:17:12.405Z,18.60
2023-02-08T14:19:42.068Z,21.47
2023-02-08T14:22:18.285Z,29.07
2023-02-08T14:24:49.526Z,17.50
2023-02-08T14:27:25.229Z,24.10
2023-02-08T14:29:58.281Z,22.20
2023-02-08T14:32:26.938Z,23.50
2023-02-08T14:35:01.723Z,22.67
2023-02-08T14:37:31.169Z,25.17
2023-02-08T14:40:35.091Z,24.73
2023-02-08T14:43:06.085Z,19.00
2023-02-08T14:45:36.164Z,24.50
2023-02-08T14:48:07.849Z,22.70
2023-02-08T14:50:38.546Z,25.30
2023-02-08T14:53:16.138Z,19.53
2023-02-08T14:55:48.621Z,19.57
2023-02-08T14:58:25.446Z,23.60
2023-02-08T15:00:55.532Z,24.70
2023-02-08T15:03:23.603Z,24.00
2023-02-08T15:06:16.736Z,25.83
2023-02-08T15:08:50.557Z,20.33
2023-02-08T15:11:22.440Z,22.50
2023-02-08T15:13:52.362Z,21.63
2023-02-08T15:16:20.627Z,24.53
2023-02-08T15:18:49.847Z,22.93
2023-02-08T15:21:18.900Z,31.50
2023-02-08T15:23:59.446Z,21.00
2023-02-08T15:26:27.608Z,21.20
2023-02-08T15:28:59.357Z,26.43
2023-02-08T15:31:30.913Z,29.53
2023-02-08T15:33:59.517Z,23.27
2023-02-08T15:36:29.922Z,29.00
2023-02-08T15:38:59.371Z,21.80
2023-02-08T15:41:29.622Z,22.77
2023-02-08T15:44:15.900Z,25.97
2023-02-08T15:46:44.107Z,20.90
2023-02-08T15:49:15.020Z,32.53
2023-02-08T15:51:42.713Z,23.23
2023-02-08T15:54:17.248Z,26.37
2023-02-08T15:56:49.507Z,24.30
2023-02-08T15:59:22.594Z,25.47
2023-02-08T16:01:50.717Z,26.43
2023-02-08T16:04:18.626Z,23.00
2023-02-08T16:06:50.035Z,27.97
2023-02-08T16:09:19.287Z,23.90
2023-02-08T16:11:49.197Z,26.87
2023-02-08T16:14:24.198Z,23.00
2023-02-08T16:16:55.811Z,24.30
2023-02-08T16:19:26.373Z,24.93
2023-02-08T16:21:54.945Z,26.83
2023-02-08T16:24:25.331Z,20.10
2023-02-08T16:26:57.681Z,25.50
2023-02-08T16:29:28.616Z,22.47
2023-02-08T16:32:03.680Z,27.13
2023-02-08T16:34:34.066Z,27.47
2023-02-08T16:37:02.506Z,25.43
2023-02-08T16:39:42.304Z,27.63
2023-02-08T16:42:22.709Z,19.97
2023-02-08T16:45:06.597Z,26.20
2023-02-08T16:47:40.166Z,29.27
2023-02-08T16:50:10.434Z,22.97
2023-02-08T16:52:38.200Z,27.20
2023-02-08T16:55:06.727Z,22.87
2023-02-08T16:57:52.674Z,28.53
2023-02-08T17:00:24.569Z,33.13
2023-02-08T17:02:52.853Z,27.40
2023-02-08T17:05:21.602Z,20.60
2023-02-08T17:07:49.676Z,25.97
2023-02-08T17:10:25.733Z,21.67
2023-02-08T17:13:06.842Z,26.10
2023-02-08T17:15:44.495Z,25.97
2023-02-08T17:18:13.124Z,28.00
2023-02-08T17:20:41.021Z,27.40
2023-02-08T17:23:08.708Z,24.30
2023-02-08T17:25:36.590Z,28.30
2023-02-08T17:28:06.831Z,24.37
2023-02-08T17:30:36.945Z,30.20
2023-02-08T17:33:07.599Z,25.93
2023-02-08T17:35:37.596Z,25.73
2023-02-08T17:38:06.448Z,26.70
2023-02-08T17:40:36.684Z,22.03
2023-02-08T17:43:05.320Z,27.80
2023-02-08T17:45:33.528Z,23.00
2023-02-08T17:48:01.691Z,26.10
2023-02-08T17:50:30.680Z,35.63
2023-02-08T17:52:58.342Z,30.60
2023-02-08T17:55:26.055Z,37.03
2023-02-08T17:57:53.936Z,31.60
2023-02-08T18:00:23.714Z,31.10
2023-02-08T18:02:53.664Z,41.90
2023-02-08T18:05:25.295Z,34.90
2023-02-08T18:07:55.937Z,41.70
2023-02-08T18:10:24.479Z,29.47
2023-02-08T18:12:52.192Z,39.97
2023-02-08T18:15:21.294Z,48.43
2023-02-08T18:17:50.274Z,29.87
2023-02-08T18:20:18.647Z,39.17
2023-02-08T18:22:46.478Z,39.20
2023-02-08T18:25:16.224Z,34.40
2023-02-08T18:27:44.085Z,35.60
2023-02-08T18:30:12.885Z,42.00
2023-02-08T18:32:40.557Z,37.50
2023-02-08T18:35:09.168Z,35.00
2023-02-08T18:37:37.340Z,35.80
2023-02-08T18:40:06.159Z,43.30
2023-02-08T18:42:36.307Z,35.37
2023-02-08T18:45:04.754Z,35.00
2023-02-08T18:47:32.547Z,40.90
2023-02-08T18:50:00.153Z,41.30
2023-02-08T18:52:28.298Z,36.20
2023-02-08T18:54:56.496Z,36.40
2023-02-08T18:57:24.132Z,40.20
2023-02-08T18:59:54.240Z,39.80
2023-02-08T19:02:24.254Z,37.03
2023-02-08T19:04:52.002Z,41.43
2023-02-08T19:07:19.836Z,42.40
2023-02-08T19:09:47.427Z,38.97
2023-02-08T19:12:15.851Z,38.90
2023-02-08T19:14:44.032Z,41.90
2023-02-08T19:17:14.842Z,39.03
2023-02-08T19:19:42.830Z,44.80
2023-02-08T19:22:10.817Z,54.03
2023-02-08T19:24:38.776Z,46.50
2023-02-08T19:27:06.476Z,42.63
2023-02-08T19:29:34.527Z,42.20
2023-02-08T19:32:02.213Z,40.63
2023-02-08T19:34:31.210Z,42.27
2023-02-08T19:36:58.802Z,47.60
2023-02-08T19:39:27.980Z,39.90
2023-02-08T19:41:58.487Z,38.80
2023-02-08T19:44:29.091Z,42.47
2023-02-08T19:46:57.976Z,40.07
2023-02-08T19:49:27.280Z,45.37
2023-02-08T19:51:56.854Z,47.90
2023-02-08T19:54:24.750Z,43.70
2023-02-08T19:56:54.624Z,42.40
2023-02-08T19:59:24.441Z,47.07
2023-02-08T20:01:52.636Z,38.17
2023-02-08T20:04:20.489Z,43.83
2023-02-08T20:06:52.059Z,42.07
2023-02-08T20:09:21.305Z,46.83
2023-02-08T20:11:56.727Z,39.50
2023-02-08T20:14:25.066Z,48.57
2023-02-08T20:16:52.780Z,43.00
2023-02-08T20:19:20.452Z,49.53
2023-02-08T20:21:48.077Z,40.17
2023-02-08T20:24:16.076Z,50.20
2023-02-08T20:26:46.821Z,45.30
2023-02-08T20:29:14.619Z,52.83
2023-02-08T20:31:46.661Z,48.77
2023-02-08T20:34:16.382Z,44.77
2023-02-08T20:36:57.484Z,44.40
2023-02-08T20:39:32.762Z,45.03
2023-02-08T20:42:01.807Z,41.93
2023-02-08T20:44:29.565Z,45.70
2023-02-08T20:46:57.230Z,44.40
2023-02-08T20:49:26.448Z,43.60
2023-02-08T20:51:54.780Z,39.23
2023-02-08T20:54:24.398Z,44.60
2023-02-08T20:56:52.768Z,57.73
2023-02-08T20:59:22.212Z,43.83
2023-02-08T21:01:50.406Z,53.63
2023-02-08T21:04:20.224Z,43.17
2023-02-08T21:06:48.048Z,47.43
2023-02-08T21:09:17.413Z,46.10
2023-02-08T21:11:47.212Z,45.33
2023-02-08T21:14:18.854Z,44.77
2023-02-08T21:16:48.962Z,44.23
2023-02-08T21:19:17.293Z,43.23
2023-02-08T21:21:45.075Z,49.83
2023-02-08T21:24:12.782Z,54.57
2023-02-08T21:26:40.394Z,59.33
2023-02-08T21:29:08.386Z,47.73
2023-02-08T21:31:37.378Z,43.90
2023-02-08T21:34:07.105Z,45.40
2023-02-08T21:36:35.094Z,57.00
2023-02-08T21:39:02.749Z,51.30
2023-02-08T21:41:31.955Z,49.90
2023-02-08T21:44:02.255Z,47.40
2023-02-08T21:46:30.403Z,48.70
2023-02-08T21:49:16.391Z,47.77
2023-02-08T21:52:03.657Z,55.80
2023-02-08T21:54:44.371Z,51.30
2023-02-08T21:57:16.423Z,45.50
2023-02-08T21:59:44.418Z,45.50
2023-02-08T22:02:15.434Z,45.23
2023-02-08T22:05:00.841Z,52.40
2023-02-08T22:07:30.272Z,41.23
2023-02-08T22:09:57.889Z,53.63
2023-02-08T22:12:25.587Z,52.43
2023-02-08T22:14:53.240Z,52.63
2023-02-08T22:17:20.905Z,44.27
2023-02-08T22:19:48.618Z,57.47
2023-02-08T22:22:16.278Z,45.27
2023-02-08T22:24:45.313Z,46.97
2023-02-08T22:27:13.184Z,42.60
2023-02-08T22:29:40.919Z,51.93
2023-02-08T22:32:09.931Z,51.97
2023-02-08T22:34:38.220Z,50.00
2023-02-08T22:37:06.160Z,49.60
2023-02-08T22:39:34.206Z,52.53
2023-02-08T22:42:07.956Z,53.53
2023-02-08T22:44:35.930Z,53.40
2023-02-08T22:47:03.912Z,50.40
2023-02-08T22:49:31.583Z,49.10
2023-02-08T22:51:59.513Z,50.90
2023-02-08T22:54:27.311Z,51.70
2023-02-08T22:56:55.440Z,58.33
2023-02-08T22:59:24.466Z,53.83
2023-02-08T23:01:52.278Z,51.03
2023-02-08T23:04:20.023Z,51.40
2023-02-08T23:06:48.068Z,49.87
2023-02-08T23:09:15.733Z,59.20
2023-02-08T23:11:43.513Z,52.40
2023-02-08T23:14:11.250Z,53.33
2023-02-08T23:16:40.533Z,61.33
2023-02-08T23:19:08.298Z,51.00
2023-02-08T23:21:37.550Z,57.17
2023-02-08T23:24:07.048Z,55.53
2023-02-08T23:26:35.077Z,47.70
2023-02-08T23:29:02.807Z,56.43
2023-02-08T23:31:30.613Z,53.57
2023-02-08T23:34:01.182Z,52.93
2023-02-08T23:36:29.666Z,53.83
2023-02-08T23:39:05.186Z,54.93
2023-02-08T23:41:36.168Z,55.93
2023-02-08T23:44:03.804Z,56.23
2023-02-08T23:46:32.128Z,49.77
2023-02-08T23:49:01.160Z,62.77
2023-02-08T23:51:29.211Z,60.47
2023-02-08T23:53:56.976Z,62.30
2023-02-08T23:56:26.726Z,56.00
2023-02-08T23:58:56.232Z,55.20
